createdAt,value
2022-11-21T00:01:46.812Z,7.40
2022-11-21T00:04:15.546Z,7.30
2022-11-21T00:06:44.038Z,7.40
2022-11-21T00:09:12.592Z,7.40
2022-11-21T00:11:41.037Z,7.40
2022-11-21T00:14:09.519Z,7.30
2022-11-21T00:16:39.460Z,7.30
2022-11-21T00:19:07.788Z,7.30
2022-11-21T00:21:36.352Z,7.30
2022-11-21T00:24:05.187Z,7.20
2022-11-21T00:26:33.790Z,7.20
2022-11-21T00:29:02.383Z,7.10
2022-11-21T00:31:31.472Z,7.10
2022-11-21T00:34:01.532Z,7.10
2022-11-21T00:36:30.067Z,7.10
2022-11-21T00:38:58.567Z,7.10
2022-11-21T00:41:26.984Z,7.10
2022-11-21T00:43:55.531Z,7.20
2022-11-21T00:46:24.009Z,7.20
2022-11-21T00:48:52.355Z,7.20
2022-11-21T00:51:22.198Z,7.20
2022-11-21T00:53:50.710Z,7.20
2022-11-21T00:56:19.114Z,7.20
2022-11-21T00:58:47.617Z,7.30
2022-11-21T01:01:17.092Z,7.30
2022-11-21T01:03:47.088Z,7.30
2022-11-21T01:06:18.680Z,7.30
2022-11-21T01:08:48.654Z,7.40
2022-11-21T01:11:19.107Z,7.40
2022-11-21T01:13:48.762Z,7.40
2022-11-21T01:16:18.649Z,7.40
2022-11-21T01:18:47.959Z,7.40
2022-11-21T01:21:18.870Z,7.50
2022-11-21T01:23:49.074Z,7.50
2022-11-21T01:26:19.298Z,7.50
2022-11-21T01:28:48.494Z,7.60
2022-11-21T01:31:19.730Z,7.60
2022-11-21T01:33:48.973Z,7.60
2022-11-21T01:36:19.294Z,7.60
2022-11-21T01:38:50.674Z,7.60
2022-11-21T01:41:23.525Z,7.60
2022-11-21T01:43:52.469Z,7.70
2022-11-21T01:46:22.310Z,7.70
2022-11-21T01:48:56.517Z,7.70
2022-11-21T01:51:29.790Z,7.70
2022-11-21T01:54:06.663Z,7.70
2022-11-21T01:56:41.431Z,7.70
2022-11-21T01:59:16.348Z,7.70
2022-11-21T02:01:45.926Z,7.80
2022-11-21T02:04:14.673Z,7.80
2022-11-21T02:06:43.462Z,7.80
2022-11-21T02:09:13.854Z,7.80
2022-11-21T02:11:45.628Z,7.90
2022-11-21T02:14:35.019Z,7.90
2022-11-21T02:17:07.536Z,7.90
2022-11-21T02:19:44.702Z,7.90
2022-11-21T02:22:19.998Z,8.00
2022-11-21T02:24:58.933Z,8.00
2022-11-21T02:27:27.377Z,8.00
2022-11-21T02:30:17.390Z,8.00
2022-11-21T02:32:48.030Z,8.10
2022-11-21T02:35:18.835Z,8.00
2022-11-21T02:37:49.371Z,8.10
2022-11-21T02:40:25.593Z,8.10
2022-11-21T02:43:19.291Z,8.10
2022-11-21T02:45:48.620Z,8.10
2022-11-21T02:48:17.495Z,8.20
2022-11-21T02:50:48.073Z,8.20
2022-11-21T02:53:18.971Z,8.20
2022-11-21T02:55:49.230Z,8.30
2022-11-21T02:58:17.986Z,8.30
2022-11-21T03:00:47.210Z,8.30
2022-11-21T03:03:15.888Z,8.30
2022-11-21T03:05:44.938Z,8.40
2022-11-21T03:08:13.987Z,8.40
2022-11-21T03:10:42.842Z,8.30
2022-11-21T03:13:13.217Z,8.40
2022-11-21T03:15:41.944Z,8.40
2022-11-21T03:18:10.897Z,8.40
2022-11-21T03:20:40.653Z,8.40
2022-11-21T03:23:09.765Z,8.40
2022-11-21T03:25:38.810Z,8.40
2022-11-21T03:28:07.506Z,8.40
2022-11-21T03:30:40.522Z,8.40
2022-11-21T03:33:09.810Z,8.40
2022-11-21T03:35:38.373Z,8.40
2022-11-21T03:38:06.981Z,8.40
2022-11-21T03:40:35.686Z,8.50
2022-11-21T03:43:06.701Z,8.50
2022-11-21T03:45:38.706Z,8.50
2022-11-21T03:48:09.552Z,8.50
2022-11-21T03:50:39.337Z,8.50
2022-11-21T03:53:07.894Z,8.60
2022-11-21T03:55:36.432Z,8.60
2022-11-21T03:58:05.113Z,8.60
2022-11-21T04:00:33.585Z,8.60
2022-11-21T04:03:03.717Z,8.60
2022-11-21T04:05:32.237Z,8.60
2022-11-21T04:08:00.796Z,8.50
2022-11-21T04:10:29.378Z,8.60
2022-11-21T04:12:58.053Z,8.60
2022-11-21T04:15:26.740Z,8.60
2022-11-21T04:17:55.230Z,8.70
2022-11-21T04:20:25.203Z,8.60
2022-11-21T04:22:53.725Z,8.70
2022-11-21T04:25:22.297Z,8.70
2022-11-21T04:27:50.907Z,8.70
2022-11-21T04:30:19.539Z,8.70
2022-11-21T04:32:49.692Z,8.70
2022-11-21T04:35:18.320Z,8.70
2022-11-21T04:37:48.504Z,8.70
2022-11-21T04:40:17.912Z,8.70
2022-11-21T04:42:48.121Z,8.70
2022-11-21T04:45:18.066Z,8.70
2022-11-21T04:47:49.776Z,8.80
2022-11-21T04:50:19.822Z,8.80
2022-11-21T04:52:53.315Z,8.80
2022-11-21T04:55:22.405Z,8.80
2022-11-21T04:57:50.903Z,8.80
2022-11-21T05:00:24.231Z,8.80
2022-11-21T05:02:53.234Z,8.80
2022-11-21T05:05:21.880Z,8.80
2022-11-21T05:07:51.937Z,8.80
2022-11-21T05:10:20.359Z,8.80
2022-11-21T05:13:05.946Z,8.90
2022-11-21T05:15:34.538Z,8.90
2022-11-21T05:18:03.153Z,8.80
2022-11-21T05:20:35.759Z,8.90
2022-11-21T05:23:07.080Z,8.90
2022-11-21T05:25:35.831Z,8.90
2022-11-21T05:28:04.484Z,8.90
2022-11-21T05:30:33.273Z,9.00
2022-11-21T05:33:01.849Z,9.10
2022-11-21T05:35:30.517Z,9.10
2022-11-21T05:37:59.653Z,9.10
2022-11-21T05:40:29.705Z,9.20
2022-11-21T05:43:15.999Z,9.20
2022-11-21T05:45:45.065Z,9.20
2022-11-21T05:48:14.077Z,9.30
2022-11-21T05:50:50.663Z,9.30
2022-11-21T05:53:19.827Z,9.30
2022-11-21T05:55:50.026Z,9.30
2022-11-21T05:58:18.894Z,9.30
2022-11-21T06:00:47.790Z,9.30
2022-11-21T06:03:28.471Z,9.40
2022-11-21T06:06:23.718Z,9.40
2022-11-21T06:08:53.721Z,9.40
2022-11-21T06:11:23.993Z,9.50
2022-11-21T06:13:53.713Z,9.50
2022-11-21T06:16:22.506Z,9.50
2022-11-21T06:18:56.806Z,9.50
2022-11-21T06:21:29.125Z,9.60
2022-11-21T06:23:59.236Z,9.60
2022-11-21T06:26:29.670Z,9.60
2022-11-21T06:28:58.342Z,9.60
2022-11-21T06:31:28.525Z,9.70
2022-11-21T06:33:58.342Z,9.70
2022-11-21T06:36:27.677Z,9.70
2022-11-21T06:38:57.470Z,9.70
2022-11-21T06:41:30.344Z,9.70
2022-11-21T06:44:00.949Z,9.70
2022-11-21T22:30:42.347Z,6.40
2022-11-21T22:33:10.904Z,6.30
2022-11-21T22:35:39.334Z,6.30
2022-11-21T22:38:07.778Z,6.30
2022-11-21T22:40:36.160Z,6.30
2022-11-21T22:43:04.621Z,6.30
2022-11-21T22:45:35.178Z,6.30
2022-11-21T22:48:05.744Z,6.30
2022-11-21T22:50:34.785Z,6.30
2022-11-21T22:53:03.115Z,6.30
2022-11-21T22:55:31.569Z,6.30
2022-11-21T22:57:59.998Z,6.30
2022-11-21T23:00:28.441Z,6.30
2022-11-21T23:02:56.777Z,6.30
2022-11-21T23:05:27.568Z,6.30
2022-11-21T23:07:56.396Z,6.30
2022-11-21T23:10:24.718Z,6.30
2022-11-21T23:12:53.117Z,6.30
2022-11-21T23:15:21.634Z,6.30
2022-11-21T23:17:52.638Z,6.30
2022-11-21T23:20:21.311Z,6.30
2022-11-21T23:22:51.328Z,6.30
2022-11-21T23:25:19.782Z,6.30
2022-11-21T23:27:48.189Z,6.30
2022-11-21T23:30:17.213Z,6.40
2022-11-21T23:32:45.766Z,6.40
2022-11-21T23:35:17.879Z,6.40
2022-11-21T23:37:48.283Z,6.40
2022-11-21T23:40:18.256Z,6.40
2022-11-21T23:42:47.172Z,6.40
2022-11-21T23:45:16.010Z,6.40
2022-11-21T23:48:07.973Z,6.40
2022-11-21T23:50:36.368Z,6.50
2022-11-21T23:53:04.801Z,6.50
2022-11-21T23:55:34.648Z,6.50
2022-11-21T23:58:03.369Z,6.60
